createdAt,value
2022-10-19T13:12:55.376Z,12.33
2022-10-19T13:15:52.949Z,8.30
2022-10-19T13:19:03.558Z,15.33
2022-10-19T13:22:14.434Z,13.30
2022-10-19T13:24:42.410Z,10.73
2022-10-19T13:27:38.354Z,11.90
2022-10-19T13:30:47.635Z,9.53
2022-10-19T13:33:51.424Z,11.63
2022-10-19T13:36:21.028Z,13.90
2022-10-19T13:39:07.714Z,8.53
2022-10-19T13:42:03.280Z,8.63
2022-10-19T13:44:38.979Z,8.30
2022-10-19T13:47:33.432Z,10.70
2022-10-19T13:50:30.539Z,10.07
2022-10-19T13:53:31.507Z,11.30
2022-10-19T13:56:12.151Z,8.90
2022-10-19T13:59:18.878Z,10.20
2022-10-19T14:02:01.898Z,8.90
2022-10-19T14:04:47.482Z,11.00
2022-10-19T14:07:21.061Z,7.77
2022-10-19T14:10:08.493Z,8.67
2022-10-19T14:12:42.179Z,6.23
2022-10-19T14:15:24.247Z,9.53
2022-10-19T14:17:52.198Z,7.40
2022-10-19T14:20:31.000Z,7.03
2022-10-19T14:22:59.449Z,4.93
2022-10-19T14:25:29.339Z,7.87
2022-10-19T14:28:00.890Z,6.10
2022-10-19T14:30:31.542Z,8.50
2022-10-19T14:33:02.576Z,8.73
2022-10-19T14:35:35.150Z,7.97
2022-10-19T14:38:06.094Z,5.57
2022-10-19T14:40:38.358Z,6.57
2022-10-19T14:43:21.430Z,8.57
2022-10-19T14:46:15.100Z,6.23
2022-10-19T14:48:46.015Z,6.00
2022-10-19T14:51:31.555Z,9.60
2022-10-19T14:54:02.486Z,6.80
2022-10-19T14:56:35.687Z,7.30
2022-10-19T14:59:07.161Z,7.10
2022-10-19T15:01:36.234Z,7.20
2022-10-19T15:04:05.149Z,7.87
2022-10-19T15:06:38.086Z,8.93
2022-10-19T15:09:15.343Z,8.43
2022-10-19T15:11:55.633Z,8.53
2022-10-19T15:14:26.897Z,8.93
2022-10-19T15:16:57.104Z,7.60
2022-10-19T15:19:28.997Z,9.43
2022-10-19T15:22:19.865Z,9.67
2022-10-19T15:25:00.310Z,10.97
2022-10-19T15:27:34.050Z,8.23
2022-10-19T15:30:04.890Z,8.30
2022-10-19T15:32:36.570Z,7.63
2022-10-19T15:35:12.943Z,7.37
2022-10-19T15:37:44.583Z,6.57
2022-10-19T15:40:19.031Z,6.00
2022-10-19T15:42:48.885Z,6.63
2022-10-19T15:45:31.298Z,5.83
2022-10-19T15:48:30.388Z,8.13
2022-10-19T15:50:58.811Z,5.60
2022-10-19T15:53:28.062Z,9.23
2022-10-19T15:55:56.148Z,5.00
2022-10-19T15:58:24.109Z,7.80
2022-10-19T16:00:51.999Z,10.83
2022-10-19T16:03:19.943Z,7.30
2022-10-19T16:05:48.334Z,6.10
2022-10-19T16:08:16.376Z,6.23
2022-10-19T16:10:46.070Z,6.53
2022-10-19T16:13:14.006Z,7.10
2022-10-19T16:15:41.846Z,5.17
2022-10-19T16:18:11.989Z,7.23
2022-10-19T16:20:40.428Z,5.27
2022-10-19T16:23:08.494Z,6.33
2022-10-19T16:25:36.646Z,5.67
2022-10-19T16:28:06.156Z,6.90
2022-10-19T16:30:34.175Z,7.60
2022-10-19T16:33:02.077Z,6.73
2022-10-19T16:35:30.003Z,6.40
2022-10-19T16:37:59.199Z,7.10
2022-10-19T16:40:27.062Z,8.80
2022-10-19T16:42:56.643Z,5.97
2022-10-19T16:45:26.052Z,4.50
2022-10-19T16:47:54.278Z,6.83
2022-10-19T16:50:22.426Z,6.43
2022-10-19T16:53:05.181Z,7.80
2022-10-19T16:55:33.250Z,6.23
2022-10-19T16:58:01.055Z,7.53
2022-10-19T17:00:30.341Z,7.03
2022-10-19T17:02:58.504Z,8.65
2022-10-19T17:05:26.532Z,10.02
2022-10-19T17:07:54.588Z,9.83
2022-10-19T17:10:22.725Z,8.77
2022-10-19T17:12:50.720Z,8.50
2022-10-19T17:15:41.496Z,9.27
2022-10-19T17:18:08.576Z,8.80
2022-10-19T17:20:36.535Z,8.47
2022-10-19T17:23:04.409Z,11.03
2022-10-19T17:25:32.295Z,7.20
2022-10-19T17:28:00.306Z,10.70
2022-10-19T17:30:28.249Z,10.80
2022-10-19T17:32:56.169Z,8.37
2022-10-19T17:35:25.333Z,10.23
2022-10-19T17:37:53.535Z,9.13
2022-10-19T17:40:21.374Z,6.63
2022-10-19T17:42:49.380Z,7.87
2022-10-19T17:45:17.432Z,7.03
2022-10-19T17:47:45.555Z,10.30
2022-10-19T17:50:13.428Z,9.13
2022-10-19T17:52:42.578Z,10.83
2022-10-19T17:55:13.058Z,8.60
2022-10-19T17:57:41.658Z,10.07
2022-10-19T18:00:10.225Z,7.70
2022-10-19T18:02:38.168Z,9.05
2022-10-19T18:05:07.025Z,6.27
2022-10-19T18:07:35.251Z,9.73
2022-10-19T18:10:05.424Z,9.33
2022-10-19T18:12:33.346Z,6.93
2022-10-19T18:15:01.399Z,8.30
2022-10-19T18:17:29.433Z,7.43
2022-10-19T18:19:57.233Z,7.40
2022-10-19T18:22:25.219Z,8.00
2022-10-19T18:24:53.221Z,7.90
2022-10-19T18:27:22.499Z,5.83
2022-10-19T18:29:50.440Z,7.30
2022-10-19T18:32:18.296Z,10.27
2022-10-19T18:34:46.116Z,7.20
2022-10-19T18:37:14.138Z,7.20
2022-10-19T18:39:42.535Z,10.83
2022-10-19T18:42:12.674Z,8.10
2022-10-19T18:44:41.812Z,12.57
2022-10-19T18:47:09.753Z,8.07
2022-10-19T18:49:37.682Z,9.90
2022-10-19T18:52:05.743Z,7.53
2022-10-19T18:54:33.660Z,7.57
2022-10-19T18:57:01.486Z,9.20
2022-10-19T18:59:29.526Z,9.97
2022-10-19T19:01:58.995Z,10.40
2022-10-19T19:04:26.974Z,10.17
2022-10-19T19:06:55.357Z,7.47
2022-10-19T19:09:23.181Z,7.40
2022-10-19T19:11:51.530Z,9.10
2022-10-19T19:14:21.574Z,9.03
2022-10-19T19:16:49.635Z,12.53
2022-10-19T19:19:20.763Z,8.10
2022-10-19T19:21:49.887Z,7.97
2022-10-19T19:24:20.328Z,8.27
2022-10-19T19:26:50.163Z,8.47
2022-10-19T19:29:18.714Z,6.90
2022-10-19T19:31:47.255Z,9.43
2022-10-19T19:34:15.686Z,10.07
2022-10-19T19:36:48.580Z,11.77
2022-10-19T19:39:18.730Z,10.53
2022-10-19T19:41:46.959Z,8.77
2022-10-19T19:44:14.793Z,10.33
2022-10-19T19:46:42.882Z,8.03
2022-10-19T19:49:10.876Z,7.97
2022-10-19T19:51:38.838Z,8.50
2022-10-19T19:54:08.124Z,8.83
2022-10-19T19:56:37.256Z,12.53
2022-10-19T19:59:05.338Z,9.87
2022-10-19T20:01:33.619Z,9.37
2022-10-19T20:06:37.127Z,10.30
2022-10-19T20:09:08.937Z,9.20
2022-10-19T20:11:41.851Z,9.40
2022-10-19T20:14:10.686Z,10.20
2022-10-19T20:16:38.646Z,11.87
2022-10-19T20:19:08.948Z,8.43
2022-10-19T20:21:37.211Z,10.33
2022-10-19T20:24:07.143Z,8.80
2022-10-19T20:26:35.592Z,13.40
2022-10-19T20:29:04.078Z,11.53
2022-10-19T20:31:33.247Z,10.57
2022-10-19T20:34:01.446Z,12.00
2022-10-19T20:36:29.308Z,10.97
2022-10-19T20:38:58.762Z,11.50
2022-10-19T20:41:29.469Z,15.07
2022-10-19T20:43:58.028Z,11.90
2022-10-19T20:46:28.042Z,12.73
2022-10-19T20:48:56.983Z,11.60
2022-10-19T20:51:30.628Z,13.90
2022-10-19T20:54:02.389Z,16.90
2022-10-19T20:56:33.816Z,13.53
2022-10-19T21:01:33.743Z,14.90
2022-10-19T21:04:04.650Z,12.93
2022-10-19T21:06:34.034Z,12.90
2022-10-19T21:09:02.486Z,13.93
2022-10-19T21:11:34.020Z,13.93
2022-10-19T21:14:03.449Z,11.57
2022-10-19T21:16:33.542Z,14.73
2022-10-19T21:19:02.161Z,16.03
2022-10-19T21:21:32.207Z,13.70
2022-10-19T21:24:02.374Z,14.77
2022-10-19T21:26:33.544Z,12.93
2022-10-19T21:29:01.632Z,15.67
2022-10-19T21:31:30.525Z,19.83
2022-10-19T21:33:58.529Z,14.07
2022-10-19T21:36:26.477Z,17.13
2022-10-19T21:38:54.263Z,13.83
2022-10-19T21:41:26.160Z,14.50
2022-10-19T21:43:56.329Z,13.73
2022-10-19T21:46:24.684Z,14.07
2022-10-19T21:48:53.751Z,17.80
2022-10-19T21:51:33.257Z,13.37
2022-10-19T21:54:01.385Z,13.68
2022-10-19T21:56:30.058Z,18.80
2022-10-19T21:58:59.253Z,19.60
2022-10-19T22:01:29.624Z,14.67
2022-10-19T22:03:58.558Z,15.23
2022-10-19T22:06:28.257Z,17.07
2022-10-19T22:08:57.180Z,18.37
2022-10-19T22:11:26.016Z,16.47
2022-10-19T22:13:55.918Z,20.47
2022-10-19T22:16:26.316Z,18.20
2022-10-19T22:18:54.871Z,21.40
2022-10-19T22:21:24.627Z,17.58
2022-10-19T22:23:54.297Z,18.30
2022-10-19T22:26:25.674Z,20.10
2022-10-19T22:28:53.725Z,17.00
2022-10-19T22:31:21.787Z,19.57
2022-10-19T22:33:51.158Z,19.30
2022-10-19T22:36:19.451Z,17.67
2022-10-19T22:38:47.502Z,16.80
2022-10-19T22:41:15.536Z,20.90
2022-10-19T22:43:43.369Z,15.60
2022-10-19T22:46:11.253Z,20.53
2022-10-19T22:48:39.165Z,17.10
2022-10-19T22:51:08.837Z,18.15
2022-10-19T22:53:36.841Z,16.70
2022-10-19T22:56:05.298Z,16.30
2022-10-19T22:58:33.229Z,18.07
2022-10-19T23:01:02.947Z,17.07
2022-10-19T23:03:30.913Z,21.50
2022-10-19T23:05:58.954Z,18.57
2022-10-19T23:08:28.350Z,19.37
2022-10-19T23:10:56.382Z,20.33
2022-10-19T23:13:24.685Z,21.47
2022-10-19T23:15:52.510Z,19.67
2022-10-19T23:18:20.553Z,22.40
2022-10-19T23:20:55.604Z,19.97
2022-10-19T23:23:23.739Z,20.10
2022-10-19T23:26:01.014Z,24.03
2022-10-19T23:28:29.664Z,19.83
2022-10-19T23:30:58.876Z,21.53
2022-10-19T23:33:27.128Z,24.23
